Flight Track Log - Related Links

Times and Time Zones

All times are in EDT time to prevent confusion due to time zone crossing. See the N662US flight status page for this flight to view local times or setup timezone preferences in your user account.

Time Position Orientation Groundspeed Altitude Reporting Facility
EDT Latitude Longitude Course Direction KTS MPH feet Rate Location/Type
Thu 02:27:58 PM 40.6290 -73.7820 119° Southeast 166 191 100  Level FlightAware ADS-B
Thu 02:28:23 PM 40.6170 -73.7630 130° Southeast 166 191 900 1,418 Climbing FlightAware ADS-B
Thu 02:28:53 PM 40.5970 -73.7430 143° Southeast 193 222 1,400 1,000 Climbing FlightAware ADS-B
Thu 02:29:23 PM 40.5770 -73.7140 132° Southeast 226 260 1,900 750 Climbing FlightAware ADS-B
Thu 02:29:33 PM 40.5750 -73.7010 101° East 240 276 1,900 750 Level FlightAware ADS-B
Thu 02:30:03 PM 40.5800 -73.6540 82° East 270 311 2,400 1,067 Climbing FlightAware ADS-B
Thu 02:30:18 PM 40.5900 -73.6340 57° Northeast 282 325 2,700 1,333 Climbing FlightAware ADS-B
Thu 02:30:48 PM 40.6200 -73.5940 45° Northeast 302 348 3,400 1,636 Climbing FlightAware ADS-B
Thu 02:31:13 PM 40.6440 -73.5620 45° Northeast 309 356 4,200 1,418 Climbing FlightAware ADS-B
Thu 02:31:43 PM 40.6750 -73.5200 46° Northeast 321 369 4,700 1,091 Climbing FlightAware ADS-B
Thu 02:32:08 PM 40.7000 -73.4880 44° Northeast 325 374 5,200 1,650 Climbing FlightAware ADS-B
Thu 02:32:23 PM 40.7170 -73.4640 47° Northeast 328 377 5,800 2,000 Climbing FlightAware ADS-B
Thu 02:32:53 PM 40.7510 -73.4230 42° Northeast 335 386 6,700 1,800 Climbing FlightAware ADS-B
Thu 02:33:03 PM 40.7650 -73.4150 23° Northeast 334 384 7,000 1,800 Climbing FlightAware ADS-B
Thu 02:33:13 PM 40.7810 -73.4120 North 331 381 7,300 2,000 Climbing FlightAware ADS-B
Thu 02:33:48 PM 40.8330 -73.4220 352° North 327 376 8,500 2,040 Climbing FlightAware ADS-B
Thu 02:34:03 PM 40.8540 -73.4270 350° North 328 377 9,000 2,100 Climbing FlightAware ADS-B
Thu 02:34:28 PM 40.8940 -73.4350 351° North 332 382 9,900 1,754 Climbing FlightAware ADS-B
Thu 02:35:08 PM 40.9540 -73.4510 349° North 340 391 10,900 1,600 Climbing FlightAware ADS-B
Thu 02:35:28 PM 40.9810 -73.4750 326° Northwest 335 386 11,500 1,500 Climbing FlightAware ADS-B
Thu 02:36:08 PM 41.0160 -73.5420 305° West 348 400 12,400 1,200 Climbing FlightAware ADS-B
Thu 02:36:48 PM 41.0540 -73.6210 303° West 376 433 13,100 1,012 Climbing FlightAware ADS-B
Thu 02:37:31 PM 41.0975 -73.7108 303° West 402 463 13,800 1,233 Climbing FlightAware ADS-B
Thu 02:38:01 PM 41.1287 -73.7751 303° West 418 481 14,600 1,672 Climbing FlightAware ADS-B
Thu 02:38:32 PM 41.1616 -73.8430 303° West 427 491 15,500 1,645 Climbing FlightAware ADS-B
Thu 02:39:03 PM 41.1946 -73.9115 303° West 436 502 16,300 985 Climbing FlightAware ADS-B
Thu 02:39:39 PM 41.2345 -73.9946 303° West 440 506 16,600 632 Climbing FlightAware ADS-B
Thu 02:40:19 PM 41.2775 -74.0848 302° West 440 506 17,100 1,183 Climbing FlightAware ADS-B
Thu 02:40:50 PM 41.3118 -74.1567 302° West 446 513 18,000 1,770 Climbing FlightAware ADS-B
Thu 02:41:20 PM 41.3454 -74.2274 302° West 450 518 18,900 1,645 Climbing FlightAware ADS-B
Thu 02:41:52 PM 41.3809 -74.3018 302° West 454 522 19,700 1,477 Climbing FlightAware ADS-B
Thu 02:42:25 PM 41.4181 -74.3807 302° West 462 532 20,500 1,352 Climbing FlightAware ADS-B
Thu 02:43:03 PM 41.4570 -74.4700 300° West 466 536 21,300 1,448 Climbing FlightAware ADS-B
Thu 02:43:23 PM 41.4806 -74.5256 300° West 466 536 21,900 1,529 Climbing FlightAware ADS-B
Thu 02:43:54 PM 41.5136 -74.6025 300° West 473 544 22,600 1,452 Climbing FlightAware ADS-B
Thu 02:44:25 PM 41.5482 -74.6821 300° West 475 547 23,400 1,406 Climbing FlightAware ADS-B
Thu 02:44:58 PM 41.5854 -74.7646 301° West 478 550 24,100 1,216 Climbing FlightAware ADS-B
Thu 02:45:39 PM 41.6499 -74.8540 314° West 489 563 24,900 1,129 Climbing FlightAware ADS-B
Thu 02:46:23 PM 41.7250 -74.9370 320° Northwest 498 573 25,700 1,011 Climbing FlightAware ADS-B
Thu 02:47:08 PM 41.8030 -75.0220 321° Northwest 503 579 26,400 776 Climbing FlightAware ADS-B
Thu 02:47:48 PM 41.8720 -75.0970 321° Northwest 509 586 26,800 635 Climbing FlightAware ADS-B
Thu 02:48:33 PM 41.9530 -75.1890 320° Northwest 511 588 27,300 1,350 Climbing FlightAware ADS-B
Thu 02:49:08 PM 42.0200 -75.2620 321° Northwest 506 582 28,600 1,125 Climbing FlightAware ADS-B
Thu 02:49:53 PM 42.0970 -75.3460 321° Northwest 506 582 28,800 141 Climbing FlightAware ADS-B
Thu 02:50:33 PM 42.1590 -75.4140 321° Northwest 506 582 28,800  Level FlightAware ADS-B
Thu 02:51:13 PM 42.2210 -75.4820 321° Northwest 506 582 28,800 800 Level FlightAware ADS-B
Thu 02:52:03 PM 42.3580 -75.5460 341° North 505 581 30,000 800 Climbing FlightAware ADS-B
Thu 02:52:43 PM 42.4420 -75.6130 330° Northwest 504 580 30,000  Level FlightAware ADS-B
Thu 02:53:23 PM 42.5220 -75.6770 329° Northwest 505 581 30,000  Level FlightAware ADS-B
Thu 02:54:08 PM 42.6150 -75.7520 329° Northwest 506 582 30,000  Level FlightAware ADS-B
Thu 02:54:48 PM 42.6950 -75.8170 329° Northwest 507 583 30,000  Level FlightAware ADS-B
Thu 02:55:28 PM 42.7770 -75.8830 329° Northwest 510 587 30,000  Level FlightAware ADS-B
Thu 02:56:13 PM 42.8640 -75.9540 329° Northwest 511 588 30,000  Level FlightAware ADS-B
Thu 02:56:53 PM 42.9460 -76.0200 330° Northwest 509 586 30,000  Level FlightAware ADS-B
Thu 02:57:38 PM 43.0400 -76.0980 329° Northwest 508 585 30,000  Level FlightAware ADS-B
Thu 02:58:13 PM 43.1030 -76.1500 329° Northwest 507 583 30,000  Level FlightAware ADS-B
Thu 02:58:58 PM 43.2000 -76.2180 333° Northwest 516 594 30,000  Level FlightAware ADS-B
Thu 02:59:43 PM 43.3040 -76.2790 337° Northwest 514 592 30,000  Level FlightAware ADS-B
Thu 03:00:23 PM 43.3930 -76.3290 338° Northwest 514 592 30,000  Level FlightAware ADS-B
Thu 03:01:03 PM 43.4810 -76.3780 338° Northwest 515 593 30,000  Level FlightAware ADS-B
Thu 03:01:48 PM 43.5790 -76.4330 338° Northwest 515 593 30,000  Level FlightAware ADS-B
Thu 03:02:28 PM 43.6680 -76.4820 338° Northwest 514 592 30,000  Level FlightAware ADS-B
Thu 03:03:13 PM 43.7670 -76.5380 338° Northwest 514 592 30,000  Level FlightAware ADS-B
Thu 03:03:53 PM 43.8570 -76.5890 338° Northwest 515 593 30,000  Level FlightAware ADS-B
Thu 03:04:38 PM 43.9520 -76.6420 338° Northwest 517 595 30,000  Level FlightAware ADS-B
Thu 03:05:18 PM 44.0450 -76.6920 339° North 518 596 30,000  Level FlightAware ADS-B
Thu 03:05:58 PM 44.1350 -76.7410 339° North 520 598 30,000  Level FlightAware ADS-B
Thu 03:06:43 PM 44.2360 -76.7950 339° North 520 598 30,000  Level FlightAware ADS-B
Thu 03:07:18 PM 44.3110 -76.8370 338° Northwest 520 598 30,000  Level FlightAware ADS-B
Thu 03:08:08 PM 44.4240 -76.8990 339° North 517 595 30,000  Level FlightAware ADS-B
Thu 03:08:48 PM 44.5160 -76.9500 338° Northwest 514 592 30,000  Level FlightAware ADS-B
Thu 03:09:28 PM 44.6040 -76.9980 339° North 513 590 30,000  Level FlightAware ADS-B
Thu 03:10:13 PM 44.7020 -77.0530 338° Northwest 509 586 30,000  Level FlightAware ADS-B
Thu 03:10:53 PM 44.7900 -77.1030 338° Northwest 508 585 30,000  Level FlightAware ADS-B
Thu 03:11:38 PM 44.8800 -77.1530 339° North 507 583 30,000  Level FlightAware ADS-B
Thu 03:12:18 PM 44.9830 -77.1800 349° North 526 605 30,000  Level FlightAware ADS-B
Thu 03:12:48 PM 45.0500 -77.1780 North 527 606 30,000  Level FlightAware ADS-B
Thu 03:13:28 PM 45.1520 -77.1730 North 523 602 30,000  Level FlightAware ADS-B
Thu 03:14:08 PM 45.2470 -77.1680 North 525 604 30,000  Level FlightAware ADS-B
Thu 03:14:53 PM 45.3560 -77.1630 North 524 603 30,000  Level FlightAware ADS-B
Thu 03:15:33 PM 45.4530 -77.1600 North 524 603 30,000  Level FlightAware ADS-B
Thu 03:16:13 PM 45.5440 -77.1550 North 524 603 30,000  Level FlightAware ADS-B
Thu 03:16:58 PM 45.6550 -77.1480 North 523 602 30,000  Level FlightAware ADS-B
Thu 03:17:33 PM 45.7400 -77.1430 North 524 603 30,000  Level FlightAware ADS-B
Thu 03:18:23 PM 45.8590 -77.1360 North 526 605 30,000  Level FlightAware ADS-B
Thu 03:19:03 PM 45.9580 -77.1200 North 528 608 30,000  Level FlightAware ADS-B
Thu 03:19:58 PM 46.0840 -77.0980 North 529 609 30,000  Level FlightAware ADS-B
Thu 03:20:53 PM 46.2180 -77.0720 North 531 611 30,000  Level FlightAware ADS-B
Thu 03:21:33 PM 46.3010 -77.0570 North 531 611 30,000  Level FlightAware ADS-B
Thu 03:22:13 PM 46.3840 -77.0420 North 531 611 30,000  Level FlightAware ADS-B
Thu 03:23:03 PM 46.4880 -77.0240 North 531 611 30,000  Level FlightAware ADS-B
Thu 03:23:43 PM 46.5710 -77.0090 North 531 611 30,000  Level FlightAware ADS-B
Thu 03:24:23 PM 46.6540 -76.9940 North 531 611 30,000  Level FlightAware ADS-B
Thu 03:25:03 PM 46.7360 -76.9790 North 531 611 30,000  Level FlightAware ADS-B
Thu 03:25:43 PM 46.8190 -76.9640 North 531 611 30,000  Level FlightAware ADS-B
Thu 03:26:33 PM 46.9230 -76.9460 North 531 611 30,000  Level FlightAware ADS-B
Thu 03:27:13 PM 47.0060 -76.9310 North 531 611 30,000  Level FlightAware ADS-B
Thu 03:27:53 PM 47.0890 -76.9160 North 531 611 30,000  Level FlightAware ADS-B
Thu 03:28:33 PM 47.1720 -76.9010 North 531 611 30,000  Level FlightAware ADS-B
Thu 03:29:13 PM 47.2550 -76.8860 North 531 611 30,000  Level FlightAware ADS-B
Thu 03:30:03 PM 47.3580 -76.8670 North 531 611 30,000  Level FlightAware ADS-B
Thu 03:30:33 PM 47.5500 -77.3333 North 490 564 30,000  Level Montreal Center
Thu 03:31:33 PM 47.6667 -77.4167 334° Northwest 490 564 30,000  Level Montreal Center
Thu 03:32:33 PM 47.7833 -77.5167 330° Northwest 490 564 30,000  Level Montreal Center
Thu 03:33:33 PM 47.9000 -77.6167 330° Northwest 490 564 30,000  Level Montreal Center
Thu 03:34:33 PM 48.0167 -77.7167 330° Northwest 490 564 30,000  Level Montreal Center
Thu 03:35:33 PM 48.1500 -77.8333 330° Northwest 480 552 30,000  Level Montreal Center
Thu 03:36:33 PM 48.2667 -77.9167 335° Northwest 490 564 30,000  Level Montreal Center
Thu 03:37:33 PM 48.3833 -78.0167 330° Northwest 490 564 30,000  Level Montreal Center
Thu 03:38:33 PM 48.5000 -78.1167 330° Northwest 490 564 30,000  Level Montreal Center
Thu 03:39:33 PM 48.6000 -78.2333 322° Northwest 480 552 30,000  Level Montreal Center
Thu 03:40:33 PM 48.7333 -78.3167 338° Northwest 490 564 30,000  Level Montreal Center
Thu 03:41:33 PM 48.8500 -78.4167 331° Northwest 490 564 30,000  Level Montreal Center
Thu 03:42:33 PM 48.9667 -78.5333 327° Northwest 490 564 30,000  Level Montreal Center
Thu 03:43:33 PM 49.0833 -78.6333 331° Northwest 480 552 30,000  Level Montreal Center
Thu 03:44:33 PM 49.2167 -78.7500 330° Northwest 530 610 30,000  Level Montreal Center
Thu 03:45:33 PM 49.3333 -78.8333 335° Northwest 450 518 30,000  Level Montreal Center
Thu 03:46:33 PM 49.4500 -78.9333 331° Northwest 490 564 30,000  Level Montreal Center
Thu 03:47:33 PM 49.5667 -79.0500 327° Northwest 490 564 30,000  Level Montreal Center
Thu 03:48:33 PM 49.6833 -79.1333 335° Northwest 480 552 30,000  Level Montreal Center
Thu 03:49:33 PM 49.8167 -79.2500 331° Northwest 490 564 30,000  Level Montreal Center
Thu 03:50:33 PM 49.9167 -79.3667 323° Northwest 480 552 30,000  Level Montreal Center
Thu 03:51:33 PM 50.0333 -79.4833 327° Northwest 480 552 30,000 -500 Level Montreal Center
Thu 03:52:33 PM 50.1500 -79.5667 335° Northwest 490 564 29,000 -800 Descending Montreal Center
Thu 03:53:33 PM 50.2833 -79.6833 331° Northwest 500 575 28,400 -682 Descending Montreal Center
Thu 03:54:01 PM 50.3333 -79.7000 348° North 500 575 28,000 -900 Descending Toronto Center
Thu 03:54:33 PM 50.4000 -79.8000 316° Northwest 490 564 27,500 -848 Descending Montreal Center
Thu 03:55:33 PM 50.5333 -79.9167 331° Northwest 480 552 26,700 -750 Descending Montreal Center
Thu 03:56:01 PM 50.5667 -79.9167 360° North 490 564 26,400 -800 Descending Toronto Center
Thu 03:56:33 PM 50.6333 -80.0000 322° Northwest 480 552 25,900 -1,043 Descending Montreal Center
Thu 03:57:33 PM 50.7500 -80.1167 328° Northwest 480 552 24,800 -950 Descending Montreal Center
Thu 03:58:33 PM 50.8500 -80.2333 324° Northwest 480 552 24,000 -400 Descending Montreal Center
Thu 03:59:33 PM 50.9833 -80.3167 339° North 490 564 24,000  Level Montreal Center
Thu 04:00:33 PM 51.1000 -80.4500 324° Northwest 480 552 24,000  Level Montreal Center
Thu 04:01:33 PM 51.2167 -80.5667 328° Northwest 480 552 24,000  Level Montreal Center
Thu 04:02:33 PM 51.3333 -80.6833 328° Northwest 480 552 24,000  Level Montreal Center
Thu 04:03:33 PM 51.4333 -80.7667 333° Northwest 470 541 24,000  Level Montreal Center
Thu 04:04:33 PM 51.5500 -80.9000 325° Northwest 460 529 24,000  Level Montreal Center
Thu 04:05:33 PM 51.6500 -81.0167 324° Northwest 480 552 24,000  Level Montreal Center
Thu 04:06:33 PM 51.7833 -81.1333 332° Northwest 470 541 24,000  Level Montreal Center
Thu 04:07:33 PM 51.8833 -81.2333 328° Northwest 470 541 24,000  Level Montreal Center
Thu 04:08:33 PM 51.9833 -81.3500 324° Northwest 470 541 24,000  Level Montreal Center
Thu 04:09:33 PM 52.1000 -81.4833 325° Northwest 480 552 24,000  Level Montreal Center
Thu 04:10:33 PM 52.2167 -81.5667 336° Northwest 480 552 24,000  Level Montreal Center
Thu 04:11:33 PM 52.3333 -81.7000 325° Northwest 480 552 24,000  Level Montreal Center
Thu 04:12:33 PM 52.4333 -81.8167 325° Northwest 470 541 24,000  Level Montreal Center
Thu 04:13:33 PM 52.5667 -81.9500 329° Northwest 490 564 24,000  Level Montreal Center
Thu 04:14:33 PM 52.6667 -82.0833 321° Northwest 480 552 24,000  Level Montreal Center
Thu 04:15:33 PM 52.7667 -82.1833 329° Northwest 480 552 24,000  Level Montreal Center
Thu 04:16:33 PM 52.8833 -82.3000 329° Northwest 480 552 24,000  Level Montreal Center
Thu 04:17:33 PM 53.0000 -82.4333 325° Northwest 480 552 24,000  Level Montreal Center
Thu 04:18:33 PM 53.1167 -82.5667 326° Northwest 480 552 24,000  Level Montreal Center
Thu 04:19:33 PM 53.2167 -82.6667 329° Northwest 480 552 24,000  Level Montreal Center
Thu 04:20:33 PM 53.3333 -82.8000 326° Northwest 470 541 24,000  Level Montreal Center
Thu 04:21:33 PM 53.4500 -82.9167 329° Northwest 470 541 24,000  Level Montreal Center
Thu 04:22:33 PM 53.5500 -83.0500 322° Northwest 470 541 24,000  Level Montreal Center
Thu 04:23:33 PM 53.6667 -83.1667 329° Northwest 470 541 24,000  Level Montreal Center
Thu 04:24:33 PM 53.7833 -83.3000 326° Northwest 460 529 24,000  Level Montreal Center
Thu 04:25:33 PM 53.8833 -83.4333 322° Northwest 470 541 24,000  Level Montreal Center
Thu 04:26:33 PM 54.0000 -83.5667 326° Northwest 460 529 24,000  Level Montreal Center
Thu 04:27:33 PM 54.1000 -83.6667 330° Northwest 460 529 24,000  Level Montreal Center
Thu 04:28:33 PM 54.2000 -83.8000 322° Northwest 460 529 24,000  Level Montreal Center
Thu 04:29:33 PM 54.3167 -83.9167 330° Northwest 460 529 24,000 76 Level Montreal Center
Thu 04:29:52 PM 54.3167 -83.8333 90° East 470 541 24,100 1,139 Climbing Edmonton Center
Thu 04:30:52 PM 54.4167 -83.9500 326° Northwest 460 529 25,500 1,366 Climbing Edmonton Center
Thu 04:31:33 PM 54.5333 -84.1833 311° West 470 541 26,400 1,300 Climbing Montreal Center
Thu 04:31:52 PM 54.5333 -84.1000 90° East 470 541 26,800 1,300 Climbing Edmonton Center
Thu 04:32:33 PM 54.6167 -84.3000 306° West 470 541 27,700 1,400 Climbing Montreal Center
Thu 04:32:52 PM 54.6333 -84.2333 67° East 470 541 28,200 1,364 Climbing Edmonton Center
Thu 04:34:45 PM 54.8500 -84.4667 328° Northwest 520 598 30,700 1,318 Climbing Edmonton Center
Thu 04:35:45 PM 54.9500 -84.6000 323° Northwest 470 541 32,000 650 Climbing Edmonton Center
Thu 04:36:45 PM 55.0500 -84.7333 323° Northwest 460 529 32,000  Level Edmonton Center
Thu 04:37:45 PM 55.1500 -84.8667 323° Northwest 460 529 32,000  Level Edmonton Center
Thu 04:38:45 PM 55.2667 -84.9833 330° Northwest 450 518 32,000  Level Edmonton Center
Thu 04:39:45 PM 55.3500 -85.1167 318° Northwest 450 518 32,000  Level Edmonton Center
Thu 04:40:45 PM 55.4500 -85.2667 320° Northwest 450 518 32,000  Level Edmonton Center
Thu 04:41:45 PM 55.5500 -85.4167 320° Northwest 450 518 32,000  Level Edmonton Center
Thu 04:42:45 PM 55.6333 -85.5667 315° West 450 518 32,000  Level Edmonton Center
Thu 04:43:45 PM 55.7500 -85.6833 331° Northwest 460 529 32,000  Level Edmonton Center
Thu 04:44:45 PM 55.8333 -85.8333 315° West 460 529 32,000  Level Edmonton Center
Thu 04:45:45 PM 55.9500 -85.9833 324° Northwest 460 529 32,000  Level Edmonton Center
Thu 04:46:45 PM 56.0500 -86.1333 320° Northwest 460 529 32,000  Level Edmonton Center
Thu 04:47:45 PM 56.1500 -86.3000 317° Northwest 460 529 32,000  Level Edmonton Center
Thu 04:48:45 PM 56.2500 -86.4333 323° Northwest 460 529 32,000  Level Edmonton Center
Thu 04:49:45 PM 56.3500 -86.6000 317° Northwest 470 541 32,000  Level Edmonton Center
Thu 04:50:45 PM 56.4333 -86.7500 315° West 470 541 32,000  Level Edmonton Center
Thu 04:51:45 PM 56.5500 -86.8833 328° Northwest 460 529 32,000  Level Edmonton Center
Thu 04:52:45 PM 56.6333 -87.0333 315° West 460 529 32,000  Level Edmonton Center
Thu 04:53:45 PM 56.7333 -87.2000 318° Northwest 460 529 32,000 10 Level Edmonton Center
Thu 04:56:00 PM 56.8613 -87.3319 331° Northwest  Level FlightAware Approximate
Thu 05:05:00 PM 57.8726 -88.5955 322° Northwest  Level FlightAware Approximate
Thu 05:06:00 PM 57.9781 -88.7560 321° Northwest  Level FlightAware Approximate
Thu 05:07:00 PM 58.0835 -88.9174 321° Northwest  Level FlightAware Approximate
Thu 05:08:00 PM 58.1887 -89.0798 321° Northwest  Level FlightAware Approximate
Thu 05:09:00 PM 58.2937 -89.2431 321° Northwest  Level FlightAware Approximate
Thu 05:10:00 PM 58.3984 -89.4074 321° Northwest  Level FlightAware Approximate
Thu 05:11:00 PM 58.5030 -89.5727 320° Northwest  Level FlightAware Approximate
Thu 05:12:00 PM 58.6073 -89.7390 320° Northwest  Level FlightAware Approximate
Thu 05:13:00 PM 58.7114 -89.9063 320° Northwest  Level FlightAware Approximate
Thu 05:14:00 PM 58.8153 -90.0745 320° Northwest  Level FlightAware Approximate
Thu 05:15:00 PM 58.9190 -90.2438 320° Northwest  Level FlightAware Approximate
Thu 05:16:00 PM 59.0225 -90.4141 320° Northwest  Level FlightAware Approximate
Thu 05:17:00 PM 59.1257 -90.5855 320° Northwest  Level FlightAware Approximate
Thu 05:18:00 PM 59.2287 -90.7578 319° Northwest  Level FlightAware Approximate
Thu 05:19:00 PM 59.3315 -90.9312 319° Northwest  Level FlightAware Approximate
Thu 05:20:00 PM 59.4340 -91.1057 319° Northwest  Level FlightAware Approximate
Thu 05:21:00 PM 59.5363 -91.2812 319° Northwest  Level FlightAware Approximate
Thu 05:22:00 PM 59.6384 -91.4578 319° Northwest  Level FlightAware Approximate
Thu 05:23:00 PM 59.7402 -91.6355 319° Northwest  Level FlightAware Approximate
Thu 05:24:00 PM 59.8418 -91.8142 319° Northwest  Level FlightAware Approximate
Thu 05:25:00 PM 59.9432 -91.9940 318° Northwest  Level FlightAware Approximate
Thu 05:26:00 PM 60.0443 -92.1750 318° Northwest  Level FlightAware Approximate
Thu 05:27:00 PM 60.1451 -92.3570 318° Northwest  Level FlightAware Approximate
Thu 05:28:00 PM 60.2457 -92.5402 318° Northwest  Level FlightAware Approximate
Thu 05:29:00 PM 60.3461 -92.7245 318° Northwest  Level FlightAware Approximate
Thu 05:30:00 PM 60.4462 -92.9099 318° Northwest  Level FlightAware Approximate
Thu 05:31:00 PM 60.5460 -93.0965 317° Northwest  Level FlightAware Approximate
Thu 05:32:00 PM 60.6460 -93.2833 318° Northwest  Level FlightAware Approximate
Thu 05:33:00 PM 60.7460 -93.4707 318° Northwest  Level FlightAware Approximate
Thu 05:34:00 PM 60.8457 -93.6593 317° Northwest  Level FlightAware Approximate
Thu 05:35:00 PM 60.9451 -93.8491 317° Northwest  Level FlightAware Approximate
Thu 05:36:00 PM 61.0443 -94.0400 317° Northwest  Level FlightAware Approximate
Thu 05:37:00 PM 61.1395 -94.2267 317° Northwest  Level FlightAware Approximate
Thu 05:38:00 PM 61.2344 -94.4147 316° Northwest  Level FlightAware Approximate
Thu 05:39:00 PM 61.3290 -94.6039 316° Northwest  Level FlightAware Approximate
Thu 05:40:00 PM 61.4233 -94.7942 316° Northwest  Level FlightAware Approximate
Thu 05:41:00 PM 61.5174 -94.9857 316° Northwest  Level FlightAware Approximate
Thu 05:42:00 PM 61.6112 -95.1784 316° Northwest  Level FlightAware Approximate
Thu 05:43:00 PM 61.7047 -95.3721 316° Northwest  Level FlightAware Approximate
Thu 05:44:00 PM 61.7981 -95.5669 315° West  Level FlightAware Approximate
Thu 05:45:00 PM 61.8913 -95.7626 315° West  Level FlightAware Approximate
Thu 05:46:00 PM 61.9842 -95.9595 315° West  Level FlightAware Approximate
Thu 05:47:00 PM 62.0768 -96.1576 315° West  Level FlightAware Approximate
Thu 05:48:00 PM 62.1691 -96.3569 315° West  Level FlightAware Approximate
Thu 05:49:00 PM 62.2612 -96.5574 315° West  Level FlightAware Approximate
Thu 05:50:00 PM 62.3530 -96.7591 314° West  Level FlightAware Approximate
Thu 05:51:00 PM 62.4444 -96.9621 314° West  Level FlightAware Approximate
Thu 05:52:00 PM 62.5356 -97.1663 314° West  Level FlightAware Approximate
Thu 05:53:00 PM 62.6265 -97.3718 314° West  Level FlightAware Approximate
Thu 05:54:00 PM 62.7171 -97.5785 314° West  Level FlightAware Approximate
Thu 05:55:00 PM 62.8073 -97.7865 314° West  Level FlightAware Approximate
Thu 05:56:00 PM 62.8973 -97.9958 313° West  Level FlightAware Approximate
Thu 05:57:00 PM 62.9869 -98.2064 313° West  Level FlightAware Approximate
Thu 05:58:00 PM 63.0763 -98.4182 313° West  Level FlightAware Approximate
Thu 05:59:00 PM 63.1653 -98.6314 313° West  Level FlightAware Approximate
Thu 06:00:00 PM 63.2540 -98.8459 313° West  Level FlightAware Approximate
Thu 06:01:00 PM 63.3424 -99.0617 312° West  Level FlightAware Approximate
Thu 06:02:00 PM 63.4304 -99.2788 312° West  Level FlightAware Approximate
Thu 06:03:00 PM 63.5181 -99.4973 312° West  Level FlightAware Approximate
Thu 06:04:00 PM 63.6055 -99.7171 312° West  Level FlightAware Approximate
Thu 06:05:00 PM 63.6925 -99.9382 312° West  Level FlightAware Approximate
Thu 06:06:00 PM 63.7791 -100.1609 311° West  Level FlightAware Approximate
Thu 06:07:00 PM 63.8653 -100.3850 311° West  Level FlightAware Approximate
Thu 06:08:00 PM 63.9512 -100.6105 311° West  Level FlightAware Approximate
Thu 06:09:00 PM 64.0368 -100.8374 311° West  Level FlightAware Approximate
Thu 06:10:00 PM 64.1219 -101.0656 311° West  Level FlightAware Approximate
Thu 06:11:00 PM 64.2068 -101.2953 310° West  Level FlightAware Approximate
Thu 06:12:00 PM 64.2912 -101.5264 310° West  Level FlightAware Approximate
Thu 06:13:00 PM 64.3753 -101.7589 310° West  Level FlightAware Approximate
Thu 06:14:00 PM 64.4590 -101.9928 310° West  Level FlightAware Approximate
Thu 06:15:00 PM 64.5424 -102.2281 310° West  Level FlightAware Approximate
Thu 06:16:00 PM 64.6254 -102.4649 309° West  Level FlightAware Approximate
Thu 06:17:00 PM 64.7079 -102.7032 309° West  Level FlightAware Approximate
Thu 06:18:00 PM 64.7901 -102.9428 309° West  Level FlightAware Approximate
Thu 06:19:00 PM 64.8719 -103.1840 309° West  Level FlightAware Approximate
Thu 06:20:00 PM 64.9531 -103.4270 308° West  Level FlightAware Approximate
Thu 06:21:00 PM 65.0333 -103.6727 308° West  Level FlightAware Approximate
Thu 06:22:00 PM 65.1130 -103.9200 308° West  Level FlightAware Approximate
Thu 06:23:00 PM 65.1923 -104.1686 307° West  Level FlightAware Approximate
Thu 06:24:00 PM 65.2712 -104.4188 307° West  Level FlightAware Approximate
Thu 06:25:00 PM 65.3497 -104.6705 307° West  Level FlightAware Approximate
Thu 06:26:00 PM 65.4286 -104.9222 308° West  Level FlightAware Approximate
Thu 06:27:00 PM 65.5084 -105.1729 308° West  Level FlightAware Approximate
Thu 06:28:00 PM 65.5879 -105.4251 307° West  Level FlightAware Approximate
Thu 06:29:00 PM 65.6669 -105.6788 307° West  Level FlightAware Approximate
Thu 06:30:00 PM 65.7455 -105.9341 307° West  Level FlightAware Approximate
Thu 06:31:00 PM 65.8237 -106.1910 307° West  Level FlightAware Approximate
Thu 06:32:00 PM 65.9008 -106.4506 305° West  Level FlightAware Approximate
Thu 06:33:00 PM 65.9765 -106.7133 305° West  Level FlightAware Approximate
Thu 06:34:00 PM 66.0518 -106.9776 305° West  Level FlightAware Approximate
Thu 06:35:00 PM 66.1267 -107.2434 305° West  Level FlightAware Approximate
Thu 06:36:00 PM 66.2011 -107.5108 305° West  Level FlightAware Approximate
Thu 06:37:00 PM 66.2750 -107.7798 304° West  Level FlightAware Approximate
Thu 06:38:00 PM 66.3485 -108.0503 304° West  Level FlightAware Approximate
Thu 06:39:00 PM 66.4215 -108.3224 304° West  Level FlightAware Approximate
Thu 06:40:00 PM 66.4940 -108.5962 304° West  Level FlightAware Approximate
Thu 06:41:00 PM 66.5660 -108.8715 303° West  Level FlightAware Approximate
Thu 06:42:00 PM 66.6376 -109.1484 303° West  Level FlightAware Approximate
Thu 06:43:00 PM 66.7082 -109.4360 302° West  Level FlightAware Approximate
Thu 06:44:00 PM 66.7784 -109.7252 302° West  Level FlightAware Approximate
Thu 06:45:00 PM 66.8480 -110.0161 301° West  Level FlightAware Approximate
Thu 06:46:00 PM 66.9171 -110.3087 301° West  Level FlightAware Approximate
Thu 06:47:00 PM 66.9856 -110.6029 301° West  Level FlightAware Approximate
Thu 06:48:00 PM 67.0536 -110.8988 301° West  Level FlightAware Approximate
Thu 06:49:00 PM 67.1210 -111.1963 300° West  Level FlightAware Approximate
Thu 06:50:00 PM 67.1879 -111.4954 300° West  Level FlightAware Approximate
Thu 06:51:00 PM 67.2542 -111.7963 300° West  Level FlightAware Approximate
Thu 06:52:00 PM 67.3199 -112.0988 300° West  Level FlightAware Approximate
Thu 06:53:00 PM 67.3851 -112.4029 299° West  Level FlightAware Approximate
Thu 06:54:00 PM 67.4497 -112.7087 299° West  Level FlightAware Approximate
Thu 06:55:00 PM 67.5146 -113.0166 300° West  Level FlightAware Approximate
Thu 06:56:00 PM 67.5808 -113.3216 300° West  Level FlightAware Approximate
Thu 06:57:00 PM 67.6465 -113.6284 299° West  Level FlightAware Approximate
Thu 06:58:00 PM 67.7116 -113.9369 299° West  Level FlightAware Approximate
Thu 06:59:00 PM 67.7762 -114.2470 299° West  Level FlightAware Approximate
Thu 07:00:00 PM 67.8401 -114.5589 299° West  Level FlightAware Approximate
Thu 07:01:00 PM 67.9034 -114.8725 298° West  Level FlightAware Approximate
Thu 07:02:00 PM 67.9662 -115.1878 298° West  Level FlightAware Approximate
Thu 07:03:00 PM 68.0283 -115.5048 298° West  Level FlightAware Approximate
Thu 07:04:00 PM 68.0898 -115.8235 297° West  Level FlightAware Approximate
Thu 07:05:00 PM 68.1507 -116.1439 297° West  Level FlightAware Approximate
Thu 07:06:00 PM 68.2110 -116.4659 297° West  Level FlightAware Approximate
Thu 07:07:00 PM 68.2706 -116.7897 297° West  Level FlightAware Approximate
Thu 07:08:00 PM 68.3296 -117.1152 296° West  Level FlightAware Approximate
Thu 07:09:00 PM 68.3880 -117.4423 296° West  Level FlightAware Approximate
Thu 07:10:00 PM 68.4457 -117.7711 296° West  Level FlightAware Approximate
Thu 07:11:00 PM 68.5028 -118.1016 295° West  Level FlightAware Approximate
Thu 07:12:00 PM 68.5592 -118.4338 295° West  Level FlightAware Approximate
Thu 07:13:00 PM 68.6150 -118.7676 295° West  Level FlightAware Approximate
Thu 07:14:00 PM 68.6701 -119.1031 294° West  Level FlightAware Approximate
Thu 07:15:00 PM 68.7246 -119.4402 294° West  Level FlightAware Approximate
Thu 07:16:00 PM 68.7783 -119.7789 294° West  Level FlightAware Approximate
Thu 07:17:00 PM 68.8314 -120.1193 293° West  Level FlightAware Approximate
Thu 07:18:00 PM 68.8838 -120.4613 293° West  Level FlightAware Approximate
Thu 07:19:00 PM 68.9355 -120.8050 293° West  Level FlightAware Approximate
Thu 07:20:00 PM 68.9866 -121.1502 293° West  Level FlightAware Approximate
Thu 07:21:00 PM 69.0369 -121.4970 292° West  Level FlightAware Approximate
Thu 07:22:00 PM 69.0865 -121.8454 292° West  Level FlightAware Approximate
Thu 07:23:00 PM 69.1354 -122.1954 292° West  Level FlightAware Approximate
Thu 07:24:00 PM 69.1836 -122.5469 291° West  Level FlightAware Approximate
Thu 07:25:00 PM 69.2311 -122.9000 291° West  Level FlightAware Approximate
Thu 07:26:00 PM 69.2778 -123.2546 291° West  Level FlightAware Approximate
Thu 07:27:00 PM 69.3238 -123.6107 290° West  Level FlightAware Approximate
Thu 07:28:00 PM 69.3691 -123.9684 290° West  Level FlightAware Approximate
Thu 07:29:00 PM 69.4137 -124.3275 290° West  Level FlightAware Approximate
Thu 07:30:00 PM 69.4575 -124.6881 289° West  Level FlightAware Approximate
Thu 07:31:00 PM 69.5005 -125.0502 289° West  Level FlightAware Approximate
Thu 07:32:00 PM 69.5428 -125.4137 289° West  Level FlightAware Approximate
Thu 07:33:00 PM 69.5844 -125.7787 288° West  Level FlightAware Approximate
Thu 07:34:00 PM 69.6251 -126.1450 288° West  Level FlightAware Approximate
Thu 07:35:00 PM 69.6651 -126.5128 288° West  Level FlightAware Approximate
Thu 07:36:00 PM 69.7044 -126.8819 287° West  Level FlightAware Approximate
Thu 07:37:00 PM 69.7428 -127.2524 287° West  Level FlightAware Approximate
Thu 07:38:00 PM 69.7805 -127.6242 287° West  Level FlightAware Approximate
Thu 07:39:00 PM 69.8174 -127.9974 286° West  Level FlightAware Approximate
Thu 07:40:00 PM 69.8535 -128.3718 286° West  Level FlightAware Approximate
Thu 07:41:00 PM 69.8888 -128.7475 285° West  Level FlightAware Approximate
Thu 07:42:00 PM 69.9233 -129.1245 285° West  Level FlightAware Approximate
Thu 07:43:00 PM 69.9570 -129.5027 285° West  Level FlightAware Approximate
Thu 07:44:00 PM 69.9900 -129.8821 284° West  Level FlightAware Approximate
Thu 07:45:00 PM 70.0434 -130.2389 298° West  Level FlightAware Approximate
Thu 07:46:00 PM 70.1058 -130.5871 298° West  Level FlightAware Approximate
Thu 07:47:00 PM 70.1674 -130.9373 298° West  Level FlightAware Approximate
Thu 07:48:00 PM 70.2284 -131.2896 297° West  Level FlightAware Approximate
Thu 07:49:00 PM 70.2887 -131.6439 297° West  Level FlightAware Approximate
Thu 07:50:00 PM 70.3483 -132.0004 297° West  Level FlightAware Approximate
Thu 07:51:00 PM 70.4072 -132.3589 296° West  Level FlightAware Approximate
Thu 07:52:00 PM 70.4654 -132.7195 296° West  Level FlightAware Approximate
Thu 07:53:00 PM 70.5229 -133.0821 296° West  Level FlightAware Approximate
Thu 07:54:00 PM 70.5796 -133.4468 295° West  Level FlightAware Approximate
Thu 07:55:00 PM 70.6356 -133.8136 295° West  Level FlightAware Approximate
Thu 07:56:00 PM 70.6908 -134.1823 295° West  Level FlightAware Approximate
Thu 07:57:00 PM 70.7454 -134.5531 294° West  Level FlightAware Approximate
Thu 07:58:00 PM 70.7996 -134.9253 294° West  Level FlightAware Approximate
Thu 07:59:00 PM 70.8533 -135.2992 294° West  Level FlightAware Approximate
Thu 08:00:00 PM 70.9062 -135.6751 293° West  Level FlightAware Approximate
Thu 08:01:00 PM 70.9584 -136.0530 293° West  Level FlightAware Approximate
Thu 08:02:00 PM 71.0098 -136.4328 293° West  Level FlightAware Approximate
Thu 08:03:00 PM 71.0605 -136.8147 292° West  Level FlightAware Approximate
Thu 08:04:00 PM 71.1104 -137.1985 292° West  Level FlightAware Approximate
Thu 08:05:00 PM 71.1594 -137.5842 292° West  Level FlightAware Approximate
Thu 08:06:00 PM 71.2077 -137.9718 291° West  Level FlightAware Approximate
Thu 08:07:00 PM 71.2552 -138.3614 291° West  Level FlightAware Approximate
Thu 08:08:00 PM 71.3018 -138.7529 291° West  Level FlightAware Approximate
Thu 08:09:00 PM 71.3477 -139.1462 290° West  Level FlightAware Approximate
Thu 08:10:00 PM 71.3927 -139.5414 290° West  Level FlightAware Approximate
Thu 08:11:00 PM 71.4369 -139.9384 289° West  Level FlightAware Approximate
Thu 08:12:00 PM 71.4802 -140.3372 289° West  Level FlightAware Approximate
Thu 08:13:00 PM 71.5227 -140.7379 289° West  Level FlightAware Approximate
Thu 08:14:00 PM 71.5602 -141.1438 283° West  Level FlightAware Approximate
Thu 08:15:00 PM 71.5889 -141.5580 283° West  Level FlightAware Approximate
Thu 08:16:00 PM 71.6168 -141.9734 282° West  Level FlightAware Approximate
Thu 08:17:00 PM 71.6437 -142.3901 282° West  Level FlightAware Approximate
Thu 08:17:01 PM 71.3833 -139.4167 280° West 450 518 34,000  Level Anchorage Center
Thu 08:18:00 PM 71.6697 -142.8078 281° West  Level FlightAware Approximate
Thu 08:18:01 PM 71.4167 -139.7833 286° West 460 529 34,000  Level Anchorage Center
Thu 08:19:00 PM 71.6948 -143.2267 281° West  Level FlightAware Approximate
Thu 08:19:02 PM 71.4667 -140.1500 293° West 460 529 34,000  Level Anchorage Center
Thu 08:20:00 PM 71.7190 -143.6467 281° West  Level FlightAware Approximate
Thu 08:20:01 PM 71.5000 -140.5167 286° West 450 518 34,000  Level Anchorage Center
Thu 08:21:00 PM 71.7423 -144.0678 280° West  Level FlightAware Approximate
Thu 08:21:01 PM 71.5500 -140.9000 293° West 450 518 34,000  Level Anchorage Center
Thu 08:22:00 PM 71.7646 -144.4899 280° West  Level FlightAware Approximate
Thu 08:22:02 PM 71.5833 -141.2833 286° West 460 529 34,000  Level Anchorage Center
Thu 08:23:02 PM 71.6000 -141.6667 278° West 460 529 34,000  Level Anchorage Center
Thu 08:24:02 PM 71.6333 -142.0500 286° West 450 518 34,000  Level Anchorage Center
Thu 08:25:02 PM 71.6500 -142.4500 278° West 460 529 34,000  Level Anchorage Center
Thu 08:26:02 PM 71.6667 -142.8333 278° West 450 518 34,000  Level Anchorage Center
Thu 08:27:02 PM 71.7000 -143.2167 286° West 440 506 34,000  Level Anchorage Center
Thu 08:28:02 PM 71.7167 -143.6333 277° West 480 552 34,000  Level Anchorage Center
Thu 08:29:02 PM 71.7500 -144.0333 285° West 470 541 34,000  Level Anchorage Center
Thu 08:31:02 PM 71.7833 -144.8167 278° West 450 518 34,000  Level Anchorage Center
Thu 08:32:02 PM 71.8000 -145.2000 278° West 460 529 34,000  Level Anchorage Center
Thu 08:33:02 PM 71.8167 -145.6167 277° West 460 529 34,000  Level Anchorage Center
Thu 08:34:03 PM 71.8333 -146.0167 278° West 460 529 34,000  Level Anchorage Center
Thu 08:35:02 PM 71.8500 -146.4167 278° West 460 529 34,000  Level Anchorage Center
Thu 08:36:02 PM 71.8667 -146.8167 278° West 460 529 34,000  Level Anchorage Center
Thu 08:37:03 PM 71.8833 -147.2167 278° West 460 529 34,000  Level Anchorage Center
Thu 08:38:03 PM 71.9000 -147.6333 278° West 460 529 34,000  Level Anchorage Center
Thu 08:39:03 PM 71.9167 -148.0333 278° West 460 529 34,000  Level Anchorage Center
Thu 08:40:03 PM 71.9333 -148.4500 278° West 470 541 34,000  Level Anchorage Center
Thu 08:41:03 PM 71.9333 -148.8667 270° West 470 541 34,000  Level Anchorage Center
Thu 08:42:03 PM 71.9500 -149.2667 278° West 470 541 34,000  Level Anchorage Center
Thu 08:43:04 PM 71.9667 -149.6833 278° West 470 541 34,000  Level Anchorage Center
Thu 08:44:03 PM 71.9667 -150.1000 270° West 460 529 34,000  Level Anchorage Center
Thu 08:45:03 PM 71.9833 -150.5167 278° West 470 541 34,000  Level Anchorage Center
Thu 08:46:04 PM 71.9833 -150.9333 270° West 460 529 34,000  Level Anchorage Center
Thu 08:47:04 PM 71.9833 -151.3000 270° West 470 541 34,000  Level Anchorage Center
Thu 08:48:04 PM 72.0000 -151.7333 277° West 470 541 34,000  Level Anchorage Center
Thu 08:49:03 PM 72.0000 -152.1333 270° West 460 529 34,000  Level Anchorage Center
Thu 08:50:04 PM 72.0000 -152.5500 270° West 470 541 34,000  Level Anchorage Center
Thu 08:51:04 PM 72.0167 -152.9667 278° West 470 541 34,000  Level Anchorage Center
Thu 08:52:04 PM 72.0167 -153.4000 270° West 470 541 34,000  Level Anchorage Center
Thu 08:53:04 PM 72.0167 -153.8167 270° West 470 541 34,000  Level Anchorage Center
Thu 08:54:04 PM 72.0167 -154.2333 270° West 470 541 34,000  Level Anchorage Center
Thu 08:55:04 PM 72.0167 -154.6500 270° West 460 529 34,000  Level Anchorage Center
Thu 08:56:04 PM 72.0167 -155.0833 270° West 480 552 34,000  Level Anchorage Center
Thu 08:57:04 PM 72.0167 -155.5000 270° West 470 541 34,000  Level Anchorage Center
Thu 08:58:04 PM 72.0000 -155.9167 263° West 470 541 34,000  Level Anchorage Center
Thu 08:59:04 PM 72.0000 -156.3333 270° West 470 541 34,000  Level Anchorage Center
Thu 09:00:04 PM 72.0000 -156.7500 270° West 470 541 34,000  Level Anchorage Center
Thu 09:01:04 PM 72.0000 -157.1667 270° West 480 552 34,000  Level Anchorage Center
Thu 09:02:04 PM 72.0167 -157.5833 278° West 470 541 34,000  Level Anchorage Center
Thu 09:03:05 PM 72.0167 -158.0167 270° West 470 541 34,000  Level Anchorage Center
Thu 09:04:05 PM 72.0333 -158.4333 278° West 470 541 34,000  Level Anchorage Center
Thu 09:05:05 PM 72.0500 -158.8500 278° West 480 552 34,000  Level Anchorage Center
Thu 09:06:05 PM 72.0500 -159.2667 270° West 480 552 34,000  Level Anchorage Center
Thu 09:07:05 PM 72.0667 -159.7000 277° West 470 541 34,000  Level Anchorage Center
Thu 09:08:05 PM 72.0667 -160.1333 270° West 480 552 34,000  Level Anchorage Center
Thu 09:09:05 PM 72.0667 -160.5500 270° West 480 552 34,000  Level Anchorage Center
Thu 09:10:05 PM 72.0667 -160.9833 270° West 480 552 34,000  Level Anchorage Center
Thu 09:11:05 PM 72.0833 -161.4167 277° West 490 564 34,000  Level Anchorage Center
Thu 09:12:05 PM 72.0833 -161.8500 270° West 480 552 34,000  Level Anchorage Center
Thu 09:13:05 PM 72.0833 -162.2833 270° West 480 552 34,000  Level Anchorage Center
Thu 09:14:06 PM 72.0833 -162.7167 270° West 490 564 34,000  Level Anchorage Center
Thu 09:15:06 PM 72.0833 -163.1500 270° West 490 564 34,000  Level Anchorage Center
Thu 09:16:06 PM 72.0833 -163.5833 270° West 490 564 34,000  Level Anchorage Center
Thu 09:17:06 PM 72.0833 -164.0167 270° West 480 552 34,000  Level Anchorage Center
Thu 09:18:06 PM 72.0833 -164.4500 270° West 490 564 34,000  Level Anchorage Center
Thu 09:19:06 PM 72.0833 -164.9000 270° West 490 564 34,000  Level Anchorage Center
Thu 09:20:06 PM 72.0667 -165.3333 263° West 490 564 34,000  Level Anchorage Center
Thu 09:21:06 PM 72.0667 -165.7667 270° West 490 564 34,000  Level Anchorage Center
Thu 09:22:06 PM 72.0667 -166.2167 270° West 490 564 34,000  Level Anchorage Center
Thu 09:23:06 PM 72.0500 -166.6500 263° West 490 564 34,000  Level Anchorage Center
Thu 09:25:07 PM 72.0333 -167.5167 267° West 490 564 34,000  Level Anchorage Center
Thu 09:26:07 PM 72.0167 -167.9667 263° West 500 575 34,000  Level Anchorage Center
Thu 09:27:06 PM 72.0167 -168.4000 270° West 490 564 34,000 Level Anchorage Center
Thu 09:30:00 PM 71.9886 -169.2022 261° West  Level FlightAware Approximate
Thu 09:37:00 PM 71.8226 -172.1135 261° West  Level FlightAware Approximate
Thu 09:38:00 PM 71.7954 -172.5250 258° West  Level FlightAware Approximate
Thu 09:39:00 PM 71.7673 -172.9353 258° West  Level FlightAware Approximate
Thu 09:40:00 PM 71.7383 -173.3443 257° West  Level FlightAware Approximate
Thu 09:41:00 PM 71.7084 -173.7521 257° West  Level FlightAware Approximate
Thu 09:42:00 PM 71.6777 -174.1585 257° West  Level FlightAware Approximate
Thu 09:43:00 PM 71.6461 -174.5637 256° West  Level FlightAware Approximate
Thu 09:44:00 PM 71.6137 -174.9674 256° West  Level FlightAware Approximate
Thu 09:45:00 PM 71.5804 -175.3698 256° West  Level FlightAware Approximate
Thu 09:46:00 PM 71.5462 -175.7708 255° West  Level FlightAware Approximate
Thu 09:47:00 PM 71.5113 -176.1703 255° West  Level FlightAware Approximate
Thu 09:48:00 PM 71.4755 -176.5683 254° West  Level FlightAware Approximate
Thu 09:49:00 PM 71.4389 -176.9649 254° West  Level FlightAware Approximate
Thu 09:50:00 PM 71.4021 -177.3605 254° West  Level FlightAware Approximate
Thu 09:51:00 PM 71.3656 -177.7557 254° West  Level FlightAware Approximate
Thu 09:52:00 PM 71.3283 -178.1493 254° West  Level FlightAware Approximate
Thu 09:53:00 PM 71.2901 -178.5414 253° West  Level FlightAware Approximate
Thu 09:54:00 PM 71.2512 -178.9320 253° West  Level FlightAware Approximate
Thu 09:55:00 PM 71.2114 -179.3210 253° West  Level FlightAware Approximate
Thu 09:56:00 PM 71.1708 -179.7083 252° West  Level FlightAware Approximate
Thu 09:57:00 PM 71.1295 179.9059 252° West  Level FlightAware Approximate
Thu 09:58:00 PM 71.0873 179.5218 251° West  Level FlightAware Approximate
Thu 09:59:00 PM 71.0444 179.1394 251° West  Level FlightAware Approximate
Thu 10:00:00 PM 71.0006 178.7586 251° West  Level FlightAware Approximate
Thu 10:01:00 PM 70.9561 178.3795 250° West  Level FlightAware Approximate
Thu 10:02:00 PM 70.9107 178.0024 249° West  Level FlightAware Approximate
Thu 10:03:00 PM 70.8634 177.6283 249° West  Level FlightAware Approximate
Thu 10:04:00 PM 70.8153 177.2560 249° West  Level FlightAware Approximate
Thu 10:05:00 PM 70.7664 176.8855 248° West  Level FlightAware Approximate
Thu 10:06:00 PM 70.7168 176.5169 248° West  Level FlightAware Approximate
Thu 10:07:00 PM 70.6665 176.1501 248° West  Level FlightAware Approximate
Thu 10:08:00 PM 70.6154 175.7851 247° West  Level FlightAware Approximate
Thu 10:09:00 PM 70.5637 175.4220 247° West  Level FlightAware Approximate
Thu 10:10:00 PM 70.5111 175.0607 247° West  Level FlightAware Approximate
Thu 10:11:00 PM 70.4579 174.7013 246° West  Level FlightAware Approximate
Thu 10:12:00 PM 70.4040 174.3439 246° West  Level FlightAware Approximate
Thu 10:13:00 PM 70.3494 173.9883 246° West  Level FlightAware Approximate
Thu 10:14:00 PM 70.2941 173.6346 245° Southwest  Level FlightAware Approximate
Thu 10:15:00 PM 70.2381 173.2828 245° Southwest  Level FlightAware Approximate
Thu 10:16:00 PM 70.1809 172.9337 244° Southwest  Level FlightAware Approximate
Thu 10:17:00 PM 70.1227 172.5869 244° Southwest  Level FlightAware Approximate
Thu 10:18:00 PM 70.0639 172.2421 244° Southwest  Level FlightAware Approximate
Thu 10:19:00 PM 70.0044 171.8992 243° Southwest  Level FlightAware Approximate
Thu 10:20:00 PM 69.9443 171.5583 243° Southwest  Level FlightAware Approximate
Thu 10:21:00 PM 69.8835 171.2194 243° Southwest  Level FlightAware Approximate
Thu 10:22:00 PM 69.8222 170.8832 242° Southwest  Level FlightAware Approximate
Thu 10:23:00 PM 69.7566 170.5572 222° Southwest  Level FlightAware Approximate
Thu 10:24:00 PM 69.6589 170.3055 222° Southwest  Level FlightAware Approximate
Thu 10:25:00 PM 69.5607 170.0558 222° Southwest  Level FlightAware Approximate
Thu 10:26:00 PM 69.4622 169.8083 221° Southwest  Level FlightAware Approximate
Thu 10:27:00 PM 69.3633 169.5632 221° Southwest  Level FlightAware Approximate
Thu 10:28:00 PM 69.2641 169.3202 221° Southwest  Level FlightAware Approximate
Thu 10:29:00 PM 69.1645 169.0795 221° Southwest  Level FlightAware Approximate
Thu 10:30:00 PM 69.0646 168.8410 221° Southwest  Level FlightAware Approximate
Thu 10:31:00 PM 68.9644 168.6046 220° Southwest  Level FlightAware Approximate
Thu 10:32:00 PM 68.8638 168.3704 220° Southwest  Level FlightAware Approximate
Thu 10:33:00 PM 68.7629 168.1383 220° Southwest  Level FlightAware Approximate
Thu 10:34:00 PM 68.6618 167.9083 220° Southwest  Level FlightAware Approximate
Thu 10:35:00 PM 68.5602 167.6804 219° Southwest  Level FlightAware Approximate
Thu 10:36:00 PM 68.4583 167.4550 219° Southwest  Level FlightAware Approximate
Thu 10:37:00 PM 68.3559 167.2320 219° Southwest  Level FlightAware Approximate
Thu 10:38:00 PM 68.2533 167.0110 219° Southwest  Level FlightAware Approximate
Thu 10:39:00 PM 68.1504 166.7920 218° Southwest  Level FlightAware Approximate
Thu 10:40:00 PM 68.0471 166.5749 218° Southwest  Level FlightAware Approximate
Thu 10:41:00 PM 67.9436 166.3598 218° Southwest  Level FlightAware Approximate
Thu 10:42:00 PM 67.8398 166.1466 218° Southwest  Level FlightAware Approximate
Thu 10:43:00 PM 67.7440 165.9095 224° Southwest  Level FlightAware Approximate
Thu 10:44:00 PM 67.6485 165.6727 223° Southwest  Level FlightAware Approximate
Thu 10:45:00 PM 67.5526 165.4378 223° Southwest  Level FlightAware Approximate
Thu 10:46:00 PM 67.4563 165.2048 223° Southwest  Level FlightAware Approximate
Thu 10:47:00 PM 67.3597 164.9737 223° Southwest  Level FlightAware Approximate
Thu 10:48:00 PM 67.2628 164.7444 222° Southwest  Level FlightAware Approximate
Thu 10:49:00 PM 67.1656 164.5170 222° Southwest  Level FlightAware Approximate
Thu 10:50:00 PM 67.0680 164.2914 222° Southwest  Level FlightAware Approximate
Thu 10:51:00 PM 66.9702 164.0677 222° Southwest  Level FlightAware Approximate
Thu 10:52:00 PM 66.8720 163.8457 222° Southwest  Level FlightAware Approximate
Thu 10:53:00 PM 66.7735 163.6255 221° Southwest  Level FlightAware Approximate
Thu 10:54:00 PM 66.6747 163.4071 221° Southwest  Level FlightAware Approximate
Thu 10:55:00 PM 66.5756 163.1904 221° Southwest  Level FlightAware Approximate
Thu 10:56:00 PM 66.4762 162.9754 221° Southwest  Level FlightAware Approximate
Thu 10:57:00 PM 66.3761 162.7634 220° Southwest  Level FlightAware Approximate
Thu 10:58:00 PM 66.2754 162.5540 220° Southwest  Level FlightAware Approximate
Thu 10:59:00 PM 66.1744 162.3464 220° Southwest  Level FlightAware Approximate
Thu 11:00:00 PM 66.0731 162.1404 220° Southwest  Level FlightAware Approximate
Thu 11:01:00 PM 65.9715 161.9360 219° Southwest  Level FlightAware Approximate
Thu 11:02:00 PM 65.8697 161.7332 219° Southwest  Level FlightAware Approximate
Thu 11:03:00 PM 65.7676 161.5321 219° Southwest  Level FlightAware Approximate
Thu 11:04:00 PM 65.6655 161.3320 219° Southwest  Level FlightAware Approximate
Thu 11:05:00 PM 65.5634 161.1323 219° Southwest  Level FlightAware Approximate
Thu 11:06:00 PM 65.4611 160.9342 219° Southwest  Level FlightAware Approximate
Thu 11:07:00 PM 65.3585 160.7376 219° Southwest  Level FlightAware Approximate
Thu 11:08:00 PM 65.2557 160.5426 218° Southwest  Level FlightAware Approximate
Thu 11:09:00 PM 65.1526 160.3490 218° Southwest  Level FlightAware Approximate
Thu 11:10:00 PM 65.0493 160.1570 218° Southwest  Level FlightAware Approximate
Thu 11:11:00 PM 64.9457 159.9665 218° Southwest  Level FlightAware Approximate
Thu 11:12:00 PM 64.8419 159.7774 218° Southwest  Level FlightAware Approximate
Thu 11:13:00 PM 64.7379 159.5898 218° Southwest  Level FlightAware Approximate
Thu 11:14:00 PM 64.6336 159.4036 217° Southwest  Level FlightAware Approximate
Thu 11:15:00 PM 64.5291 159.2189 217° Southwest  Level FlightAware Approximate
Thu 11:16:00 PM 64.4244 159.0355 217° Southwest  Level FlightAware Approximate
Thu 11:17:00 PM 64.3194 158.8536 217° Southwest  Level FlightAware Approximate
Thu 11:18:00 PM 64.2142 158.6730 217° Southwest  Level FlightAware Approximate
Thu 11:19:00 PM 64.1088 158.4938 217° Southwest  Level FlightAware Approximate
Thu 11:20:00 PM 64.0032 158.3160 216° Southwest  Level FlightAware Approximate
Thu 11:21:00 PM 63.8973 158.1395 216° Southwest  Level FlightAware Approximate
Thu 11:22:00 PM 63.7913 157.9643 216° Southwest  Level FlightAware Approximate
Thu 11:23:00 PM 63.6850 157.7905 216° Southwest  Level FlightAware Approximate
Thu 11:24:00 PM 63.5785 157.6179 216° Southwest  Level FlightAware Approximate
Thu 11:25:00 PM 63.4718 157.4466 216° Southwest  Level FlightAware Approximate
Thu 11:26:00 PM 63.3649 157.2767 216° Southwest  Level FlightAware Approximate
Thu 11:27:00 PM 63.2578 157.1079 215° Southwest  Level FlightAware Approximate
Thu 11:28:00 PM 63.1506 156.9404 215° Southwest  Level FlightAware Approximate
Thu 11:29:00 PM 63.0431 156.7742 215° Southwest  Level FlightAware Approximate
Thu 11:30:00 PM 62.9354 156.6092 215° Southwest  Level FlightAware Approximate
Thu 11:31:00 PM 62.8275 156.4454 215° Southwest  Level FlightAware Approximate
Thu 11:32:00 PM 62.7195 156.2827 215° Southwest  Level FlightAware Approximate
Thu 11:33:00 PM 62.6112 156.1213 214° Southwest  Level FlightAware Approximate
Thu 11:34:00 PM 62.5028 155.9610 214° Southwest  Level FlightAware Approximate
Thu 11:35:00 PM 62.3942 155.8020 214° Southwest  Level FlightAware Approximate
Thu 11:36:00 PM 62.2854 155.6440 214° Southwest  Level FlightAware Approximate
Thu 11:37:00 PM 62.1764 155.4872 214° Southwest  Level FlightAware Approximate
Thu 11:38:00 PM 62.0673 155.3315 214° Southwest  Level FlightAware Approximate
Thu 11:39:00 PM 61.9580 155.1770 214° Southwest  Level FlightAware Approximate
Thu 11:40:00 PM 61.8485 155.0235 213° Southwest  Level FlightAware Approximate
Thu 11:41:00 PM 61.7388 154.8712 213° Southwest  Level FlightAware Approximate
Thu 11:42:00 PM 61.6290 154.7199 213° Southwest  Level FlightAware Approximate
Thu 11:43:00 PM 61.5191 154.5699 213° Southwest  Level FlightAware Approximate
Thu 11:44:00 PM 61.4091 154.4209 213° Southwest  Level FlightAware Approximate
Thu 11:45:00 PM 61.2989 154.2730 213° Southwest  Level FlightAware Approximate
Thu 11:46:00 PM 61.1886 154.1261 213° Southwest  Level FlightAware Approximate
Thu 11:47:00 PM 61.0781 153.9803 213° Southwest  Level FlightAware Approximate
Thu 11:48:00 PM 60.9675 153.8354 212° Southwest  Level FlightAware Approximate
Thu 11:49:00 PM 60.8567 153.6916 212° Southwest  Level FlightAware Approximate
Thu 11:50:00 PM 60.7457 153.5487 212° Southwest  Level FlightAware Approximate
Thu 11:51:00 PM 60.6346 153.4069 212° Southwest  Level FlightAware Approximate
Thu 11:52:00 PM 60.5233 153.2660 212° Southwest  Level FlightAware Approximate
Thu 11:53:00 PM 60.4119 153.1261 212° Southwest  Level FlightAware Approximate
Thu 11:54:00 PM 60.3004 152.9871 212° Southwest  Level FlightAware Approximate
Thu 11:55:00 PM 60.1887 152.8491 212° Southwest  Level FlightAware Approximate
Thu 11:56:00 PM 60.0769 152.7121 211° Southwest  Level FlightAware Approximate
Thu 11:57:00 PM 59.9649 152.5759 211° Southwest  Level FlightAware Approximate
Thu 11:58:00 PM 59.8528 152.4407 211° Southwest  Level FlightAware Approximate
Thu 11:59:00 PM 59.7405 152.3064 211° Southwest  Level FlightAware Approximate
Fri 12:00:00 AM 59.6281 152.1729 211° Southwest  Level FlightAware Approximate
Fri 12:01:00 AM 59.5156 152.0404 211° Southwest  Level FlightAware Approximate
Fri 12:02:00 AM 59.4030 151.9088 211° Southwest  Level FlightAware Approximate
Fri 12:03:00 AM 59.2902 151.7780 211° Southwest  Level FlightAware Approximate
Fri 12:04:00 AM 59.1772 151.6481 211° Southwest  Level FlightAware Approximate
Fri 12:05:00 AM 59.0642 151.5190 210° Southwest  Level FlightAware Approximate
Fri 12:06:00 AM 58.9510 151.3908 210° Southwest  Level FlightAware Approximate
Fri 12:07:00 AM 58.8377 151.2634 210° Southwest  Level FlightAware Approximate
Fri 12:08:00 AM 58.7243 151.1369 210° Southwest  Level FlightAware Approximate
Fri 12:09:00 AM 58.6108 151.0112 210° Southwest  Level FlightAware Approximate
Fri 12:10:00 AM 58.4971 150.8863 210° Southwest  Level FlightAware Approximate
Fri 12:11:00 AM 58.3833 150.7622 210° Southwest  Level FlightAware Approximate
Fri 12:12:00 AM 58.2694 150.6389 210° Southwest  Level FlightAware Approximate
Fri 12:13:00 AM 58.1554 150.5164 210° Southwest  Level FlightAware Approximate
Fri 12:14:00 AM 58.0412 150.3947 209° Southwest  Level FlightAware Approximate
Fri 12:15:00 AM 57.9270 150.2737 209° Southwest  Level FlightAware Approximate
Fri 12:16:00 AM 57.8126 150.1536 209° Southwest  Level FlightAware Approximate
Fri 12:17:00 AM 57.6981 150.0341 209° Southwest  Level FlightAware Approximate
Fri 12:18:00 AM 57.5835 149.9155 209° Southwest  Level FlightAware Approximate
Fri 12:19:00 AM 57.4688 149.7976 209° Southwest  Level FlightAware Approximate
Fri 12:20:00 AM 57.3540 149.6804 209° Southwest  Level FlightAware Approximate
Fri 12:21:00 AM 57.2390 149.5639 209° Southwest  Level FlightAware Approximate
Fri 12:22:00 AM 57.1240 149.4482 209° Southwest  Level FlightAware Approximate
Fri 12:23:00 AM 57.0089 149.3332 209° Southwest  Level FlightAware Approximate
Fri 12:24:00 AM 56.8936 149.2189 208° Southwest  Level FlightAware Approximate
Fri 12:25:00 AM 56.7783 149.1053 208° Southwest  Level FlightAware Approximate
Fri 12:26:00 AM 56.6628 148.9924 208° Southwest  Level FlightAware Approximate
Fri 12:27:00 AM 56.5473 148.8802 208° Southwest  Level FlightAware Approximate
Fri 12:28:00 AM 56.4316 148.7686 208° Southwest  Level FlightAware Approximate
Fri 12:29:00 AM 56.3159 148.6578 208° Southwest  Level FlightAware Approximate
Fri 12:30:00 AM 56.2000 148.5476 208° Southwest  Level FlightAware Approximate
Fri 12:31:00 AM 56.0841 148.4381 208° Southwest  Level FlightAware Approximate
Fri 12:32:00 AM 55.9680 148.3293 208° Southwest  Level FlightAware Approximate
Fri 12:33:00 AM 55.8519 148.2210 208° Southwest  Level FlightAware Approximate
Fri 12:34:00 AM 55.7357 148.1135 208° Southwest  Level FlightAware Approximate
Fri 12:35:00 AM 55.6193 148.0066 207° Southwest  Level FlightAware Approximate
Fri 12:36:00 AM 55.5029 147.9003 207° Southwest  Level FlightAware Approximate
Fri 12:37:00 AM 55.3864 147.7946 207° Southwest  Level FlightAware Approximate
Fri 12:38:00 AM 55.2698 147.6896 207° Southwest  Level FlightAware Approximate
Fri 12:39:00 AM 55.1531 147.5851 207° Southwest  Level FlightAware Approximate
Fri 12:40:00 AM 55.0363 147.4813 207° Southwest  Level FlightAware Approximate
Fri 12:41:00 AM 54.9195 147.3781 207° Southwest  Level FlightAware Approximate
Fri 12:42:00 AM 54.8025 147.2755 207° Southwest  Level FlightAware Approximate
Fri 12:43:00 AM 54.6855 147.1735 207° Southwest  Level FlightAware Approximate
Fri 12:44:00 AM 54.5684 147.0720 207° Southwest  Level FlightAware Approximate
Fri 12:45:00 AM 54.4511 146.9712 207° Southwest  Level FlightAware Approximate
Fri 12:46:00 AM 54.3339 146.8709 207° Southwest  Level FlightAware Approximate
Fri 12:47:00 AM 54.2165 146.7712 206° Southwest  Level FlightAware Approximate
Fri 12:48:00 AM 54.0990 146.6721 206° Southwest  Level FlightAware Approximate
Fri 12:49:00 AM 53.9815 146.5735 206° Southwest  Level FlightAware Approximate
Fri 12:50:00 AM 53.8638 146.4754 206° Southwest  Level FlightAware Approximate
Fri 12:51:00 AM 53.7462 146.3780 206° Southwest  Level FlightAware Approximate
Fri 12:52:00 AM 53.6284 146.2810 206° Southwest  Level FlightAware Approximate
Fri 12:53:00 AM 53.5105 146.1846 206° Southwest  Level FlightAware Approximate
Fri 12:54:00 AM 53.3926 146.0888 206° Southwest  Level FlightAware Approximate
Fri 12:55:00 AM 53.2746 145.9935 206° Southwest  Level FlightAware Approximate
Fri 12:56:00 AM 53.1565 145.8987 206° Southwest  Level FlightAware Approximate
Fri 12:57:00 AM 53.0383 145.8044 206° Southwest  Level FlightAware Approximate
Fri 12:58:00 AM 52.9201 145.7106 206° Southwest  Level FlightAware Approximate
Fri 12:59:00 AM 52.8018 145.6174 205° Southwest  Level FlightAware Approximate
Fri 01:00:00 AM 52.6834 145.5246 205° Southwest  Level FlightAware Approximate
Fri 01:01:00 AM 52.5650 145.4323 205° Southwest  Level FlightAware Approximate
Fri 01:02:00 AM 52.4464 145.3406 205° Southwest  Level FlightAware Approximate
Fri 01:03:00 AM 52.3279 145.2493 205° Southwest  Level FlightAware Approximate
Fri 01:04:00 AM 52.2095 145.1588 205° Southwest  Level FlightAware Approximate
Fri 01:05:00 AM 52.0911 145.0688 205° Southwest  Level FlightAware Approximate
Fri 01:06:00 AM 51.9726 144.9792 205° Southwest  Level FlightAware Approximate
Fri 01:07:00 AM 51.8540 144.8901 205° Southwest  Level FlightAware Approximate
Fri 01:08:00 AM 51.7354 144.8014 205° Southwest  Level FlightAware Approximate
Fri 01:09:00 AM 51.6167 144.7133 205° Southwest  Level FlightAware Approximate
Fri 01:10:00 AM 51.4979 144.6255 205° Southwest  Level FlightAware Approximate
Fri 01:11:00 AM 51.3791 144.5383 205° Southwest  Level FlightAware Approximate
Fri 01:12:00 AM 51.2602 144.4515 205° Southwest  Level FlightAware Approximate
Fri 01:13:00 AM 51.1413 144.3651 204° Southwest  Level FlightAware Approximate
Fri 01:14:00 AM 51.0223 144.2792 204° Southwest  Level FlightAware Approximate
Fri 01:15:00 AM 50.9032 144.1938 204° Southwest  Level FlightAware Approximate
Fri 01:16:00 AM 50.7840 144.1087 204° Southwest  Level FlightAware Approximate
Fri 01:17:00 AM 50.6648 144.0241 204° Southwest  Level FlightAware Approximate
Fri 01:18:00 AM 50.5456 143.9400 204° Southwest  Level FlightAware Approximate
Fri 01:19:00 AM 50.4263 143.8562 204° Southwest  Level FlightAware Approximate
Fri 01:20:00 AM 50.3069 143.7729 204° Southwest  Level FlightAware Approximate
Fri 01:21:00 AM 50.1875 143.6895 204° Southwest  Level FlightAware Approximate
Fri 01:22:00 AM 50.0682 143.6062 204° Southwest  Level FlightAware Approximate
Fri 01:23:00 AM 49.9489 143.5232 204° Southwest  Level FlightAware Approximate
Fri 01:24:00 AM 49.8296 143.4407 204° Southwest  Level FlightAware Approximate
Fri 01:25:00 AM 49.7101 143.3586 204° Southwest  Level FlightAware Approximate
Fri 01:26:00 AM 49.5906 143.2770 203° Southwest  Level FlightAware Approximate
Fri 01:27:00 AM 49.4706 143.1971 203° Southwest  Level FlightAware Approximate
Fri 01:28:00 AM 49.3507 143.1175 203° Southwest  Level FlightAware Approximate
Fri 01:29:00 AM 49.2306 143.0383 203° Southwest  Level FlightAware Approximate
Fri 01:30:00 AM 49.1105 142.9595 203° Southwest  Level FlightAware Approximate
Fri 01:31:00 AM 48.9904 142.8811 203° Southwest  Level FlightAware Approximate
Fri 01:32:00 AM 48.8702 142.8031 203° Southwest  Level FlightAware Approximate
Fri 01:32:48 AM 47.2440 141.9640 203° Southwest 486 559 36,000  Level FlightAware ADS-B
Fri 01:33:00 AM 48.7499 142.7254 203° Southwest  Level FlightAware Approximate
Fri 01:33:33 AM 47.1440 141.9540 184° South 483 556 36,000  Level FlightAware ADS-B
Fri 01:34:13 AM 47.0560 141.9440 184° South 482 555 36,000  Level FlightAware ADS-B
Fri 01:34:58 AM 46.9540 141.9340 184° South 481 554 36,000  Level FlightAware ADS-B
Fri 01:35:38 AM 46.8650 141.9240 184° South 481 554 36,000  Level FlightAware ADS-B
Fri 01:36:18 AM 46.7760 141.9150 184° South 481 554 36,000  Level FlightAware ADS-B
Fri 01:37:48 AM 46.5850 141.8950 186° South 481 554 36,000  Level FlightAware ADS-B
Fri 01:38:00 AM 46.5552 141.8786 186° South  Level Estimated
Fri 01:40:00 AM 46.2993 141.8479 186° South  Level Estimated
Fri 01:40:13 AM 46.2620 141.8610 186° South 481 554 36,000  Level FlightAware ADS-B
Fri 01:42:00 AM 46.0305 141.8227 187° South  Level Estimated
Fri 01:42:38 AM 45.9410 141.8280 187° South 471 542 36,000  Level FlightAware ADS-B
Fri 01:45:00 AM 45.6338 141.7772 187° South  Level Estimated
Fri 01:45:03 AM 45.6240 141.7960 187° South 471 542 36,000  Level FlightAware ADS-B
Fri 01:46:08 AM 45.4850 141.7830 184° South 470 541 36,000 164 Level FlightAware ADS-B
Fri 01:46:53 AM 45.3750 141.7730 184° South 480 552 36,300 847 Climbing FlightAware ADS-B
Fri 01:47:33 AM 45.2870 141.7690 182° South 483 556 37,200 1,125 Climbing FlightAware ADS-B
Fri 01:48:13 AM 45.1950 141.7650 182° South 486 559 37,800 565 Climbing FlightAware ADS-B
Fri 01:48:58 AM 45.0920 141.7610 182° South 481 554 38,000 141 Climbing FlightAware ADS-B
Fri 01:49:38 AM 45.0020 141.7560 182° South 480 552 38,000  Level FlightAware ADS-B
Fri 01:50:23 AM 44.8990 141.7510 182° South 479 551 38,000  Level FlightAware ADS-B
Fri 01:51:03 AM 44.8100 141.7470 182° South 485 558 38,000  Level FlightAware ADS-B
Fri 01:51:43 AM 44.7220 141.7440 181° South 485 558 38,000  Level FlightAware ADS-B
Fri 01:52:28 AM 44.6190 141.7390 182° South 485 558 38,000  Level FlightAware ADS-B
Fri 01:53:08 AM 44.5290 141.7350 182° South 486 559 38,000  Level FlightAware ADS-B
Fri 01:53:53 AM 44.4270 141.7310 182° South 480 552 38,000  Level FlightAware ADS-B
Fri 01:54:33 AM 44.3380 141.7280 181° South 480 552 38,000  Level FlightAware ADS-B
Fri 01:55:13 AM 44.2470 141.7240 182° South 480 552 38,000  Level FlightAware ADS-B
Fri 01:55:58 AM 44.1460 141.7200 182° South 480 552 38,000  Level FlightAware ADS-B
Fri 01:56:38 AM 44.0540 141.7160 182° South 480 552 38,000  Level FlightAware ADS-B
Fri 01:57:18 AM 43.9650 141.7130 181° South 480 552 38,000  Level FlightAware ADS-B
Fri 01:58:03 AM 43.8620 141.7090 182° South 481 554 38,000  Level FlightAware ADS-B
Fri 01:58:43 AM 43.7700 141.7050 182° South 482 555 38,000  Level FlightAware ADS-B
Fri 01:59:28 AM 43.6690 141.7010 182° South 484 557 38,000  Level FlightAware ADS-B
Fri 02:00:03 AM 43.5880 141.6980 182° South 485 558 38,000  Level FlightAware ADS-B
Fri 02:01:18 AM 43.4260 141.6920 182° South 485 558 38,000  Level FlightAware ADS-B
Fri 02:02:03 AM 43.3220 141.6960 178° South 485 558 38,000  Level FlightAware ADS-B
Fri 02:02:43 AM 43.2300 141.7000 178° South 484 557 38,000  Level FlightAware ADS-B
Fri 02:03:23 AM 43.1400 141.7030 179° South 483 556 38,000  Level FlightAware ADS-B
Fri 02:04:08 AM 43.0380 141.7060 179° South 483 556 38,000  Level FlightAware ADS-B
Fri 02:04:48 AM 42.9470 141.7090 179° South 482 555 38,000  Level FlightAware ADS-B
Fri 02:05:33 AM 42.8480 141.7120 179° South 482 555 38,000  Level FlightAware ADS-B
Fri 02:06:13 AM 42.7540 141.7150 179° South 482 555 38,000  Level FlightAware ADS-B
Fri 02:06:53 AM 42.6620 141.7170 179° South 483 556 38,000  Level FlightAware ADS-B
Fri 02:07:38 AM 42.5580 141.7200 179° South 485 558 38,000  Level FlightAware ADS-B
Fri 02:08:18 AM 42.4690 141.7230 179° South 486 559 38,000  Level FlightAware ADS-B
Fri 02:08:58 AM 42.3730 141.7260 179° South 495 570 38,000  Level FlightAware ADS-B
Fri 02:09:43 AM 42.2710 141.7300 178° South 496 571 38,000  Level FlightAware ADS-B
Fri 02:10:23 AM 42.1770 141.7320 179° South 497 572 38,000  Level FlightAware ADS-B
Fri 02:11:08 AM 42.0730 141.7360 178° South 495 570 38,000  Level FlightAware ADS-B
Fri 02:11:48 AM 41.9820 141.7380 179° South 485 558 38,000  Level FlightAware ADS-B
Fri 02:12:33 AM 41.8780 141.7340 182° South 484 557 38,000  Level FlightAware ADS-B
Fri 02:13:13 AM 41.7890 141.7200 187° South 483 556 38,000  Level FlightAware ADS-B
Fri 02:14:38 AM 41.6100 141.6930 186° South 482 555 38,000  Level FlightAware ADS-B
Fri 02:15:48 AM 41.4560 141.6700 186° South 483 556 38,000  Level FlightAware ADS-B
Fri 02:16:58 AM 41.2990 141.6460 187° South 484 557 38,000  Level FlightAware ADS-B
Fri 02:18:23 AM 41.1080 141.6180 186° South 484 557 38,000  Level FlightAware ADS-B
Fri 02:19:33 AM 40.9550 141.5950 186° South 487 560 38,000  Level FlightAware ADS-B
Fri 02:20:13 AM 40.8670 141.5820 186° South 486 559 38,000  Level FlightAware ADS-B
Fri 02:20:53 AM 40.7760 141.5690 186° South 486 559 38,000  Level FlightAware ADS-B
Fri 02:21:38 AM 40.6690 141.5530 186° South 486 559 38,000  Level FlightAware ADS-B
Fri 02:22:13 AM 40.5920 141.5420 186° South 482 555 38,000  Level FlightAware ADS-B
Fri 02:23:13 AM 40.4620 141.5230 186° South 488 562 38,000  Level FlightAware ADS-B
Fri 02:23:58 AM 40.3600 141.5080 186° South 486 559 38,000  Level FlightAware ADS-B
Fri 02:24:38 AM 40.2730 141.4960 186° South 483 556 38,000  Level FlightAware ADS-B
Fri 02:25:23 AM 40.1720 141.4810 186° South 472 543 38,000  Level FlightAware ADS-B
Fri 02:26:03 AM 40.0810 141.4680 186° South 473 544 38,000  Level FlightAware ADS-B
Fri 02:26:58 AM 39.9610 141.4500 187° South 486 559 38,000  Level FlightAware ADS-B
Fri 02:27:38 AM 39.8690 141.4370 186° South 488 562 38,000  Level FlightAware ADS-B
Fri 02:28:23 AM 39.7680 141.4220 187° South 488 562 38,000  Level FlightAware ADS-B
Fri 02:29:03 AM 39.6780 141.4090 186° South 482 555 38,000  Level FlightAware ADS-B
Fri 02:29:48 AM 39.5750 141.3940 186° South 487 560 38,000  Level FlightAware ADS-B
Fri 02:30:43 AM 39.4570 141.3780 186° South 486 559 38,000  Level FlightAware ADS-B
Fri 02:31:23 AM 39.3810 141.3680 186° South 486 559 38,000  Level FlightAware ADS-B
Fri 02:32:08 AM 39.2640 141.3490 187° South 486 559 38,000  Level FlightAware ADS-B
Fri 02:32:48 AM 39.1790 141.3370 186° South 486 559 38,000  Level FlightAware ADS-B
Fri 02:33:33 AM 39.0720 141.3220 186° South 483 556 38,000  Level FlightAware ADS-B
Fri 02:34:13 AM 38.9840 141.3090 187° South 477 549 38,000  Level FlightAware ADS-B
Fri 02:34:53 AM 38.9000 141.2970 186° South 474 545 38,000  Level FlightAware ADS-B
Fri 02:35:33 AM 38.8110 141.2850 186° South 474 545 38,000  Level FlightAware ADS-B
Fri 02:36:38 AM 38.6720 141.2640 187° South 38,000  Level FlightAware ADS-B
Fri 02:38:38 AM 38.4150 141.2270 186° South 475 547 38,000  Level FlightAware ADS-B
Fri 02:39:18 AM 38.3220 141.2140 186° South 467 537 38,000  Level FlightAware ADS-B
Fri 02:40:18 AM 38.2000 141.1970 186° South 467 537 38,000  Level FlightAware ADS-B
Fri 02:40:58 AM 38.1270 141.1870 186° South 467 537 38,000  Level FlightAware ADS-B
Fri 02:41:43 AM 38.0260 141.1720 187° South 463 533 38,000 -780 Level FlightAware ADS-B
Fri 02:42:38 AM 37.9010 141.1420 191° South 444 511 36,700 -1,655 Descending FlightAware ADS-B
Fri 02:44:08 AM 37.7340 141.0760 197° South 426 490 34,000 -1,157 Descending FlightAware ADS-B
Fri 02:44:58 AM 37.6300 141.0340 198° South 433 498 34,000  Level FlightAware ADS-B
Fri 02:45:38 AM 37.5530 141.0040 197° South 435 501 34,000  Level FlightAware ADS-B
Fri 02:46:13 AM 37.4910 140.9790 198° South 438 504 34,000  Level FlightAware ADS-B
Fri 02:46:58 AM 37.4000 140.9430 197° South 438 504 34,000  Level FlightAware ADS-B
Fri 02:47:43 AM 37.3120 140.9090 197° South 440 506 34,000  Level FlightAware ADS-B
Fri 02:48:53 AM 37.1810 140.8580 197° South 440 506 34,000 -844 Level FlightAware ADS-B
Fri 02:49:58 AM 37.0530 140.8080 197° South 422 486 32,100 -2,191 Descending FlightAware ADS-B
Fri 02:50:48 AM 36.9530 140.7690 197° South 429 494 29,800 -1,883 Descending FlightAware ADS-B
Fri 02:53:00 AM 36.6748 140.6783 195° South  Level Estimated
Fri 02:54:00 AM 36.5483 140.6373 195° South  Level Estimated
Fri 02:55:00 AM 36.4219 140.5965 195° South  Level Estimated
Fri 02:56:00 AM 36.2954 140.5558 195° South  Level Estimated
Fri 02:57:00 AM 36.1688 140.5152 195° South  Level Estimated
Fri 02:58:00 AM 36.0423 140.4747 194° South  Level Estimated
Fri 02:59:00 AM 35.9158 140.4344 194° South  Level Estimated
Fri 02:59:03 AM 36.1200 140.6130 194° South 360 414 15,000  Level FlightAware ADS-B
Fri 02:59:48 AM 36.0420 140.6470 161° South 365 420 14,300 -191 Descending FlightAware ADS-B
Fri 03:00:37 AM 35.9770 140.6750 161° South 365 420 14,700 -1,778 Climbing FlightAware ADS-B
Fri 03:00:42 AM 35.9940 140.7340 70° East 379 436 12,700 -2,400 Descending FlightAware ADS-B
Fri 03:01:27 AM 35.9390 140.7840 144° Southeast 379 436 12,700 -1,477 Level FlightAware ADS-B
Fri 03:01:47 AM 35.9980 140.8920 56° Northeast 369 425 11,100 -2,743 Descending FlightAware ADS-B
Fri 03:02:02 AM 35.9940 140.9220 99° East 362 417 11,100  Level FlightAware ADS-B
Fri 03:02:42 AM 35.9550 140.9880 126° Southeast 342 394 11,100 -327 Level FlightAware ADS-B
Fri 03:02:57 AM 35.9340 141.0000 155° Southeast 324 373 10,800 -857 Descending FlightAware ADS-B
Fri 03:03:52 AM 35.8570 141.0070 176° South 270 311 10,100 -635 Descending FlightAware ADS-B
Fri 03:04:22 AM 35.8290 140.9790 219° Southwest 256 295 9,900 -720 Descending FlightAware ADS-B
Fri 03:05:07 AM 35.7980 140.9340 230° Southwest 242 278 9,200 -600 Descending FlightAware ADS-B
Fri 03:05:32 AM 35.8100 140.8990 293° West 257 296 9,200 -185 Level FlightAware ADS-B
Fri 03:06:12 AM 35.8400 140.8540 309° West 242 278 9,000 -514 Descending FlightAware ADS-B
Fri 03:06:42 AM 35.8550 140.8170 297° West 248 285 8,600 -635 Descending FlightAware ADS-B
Fri 03:07:37 AM 35.8840 140.7490 298° West 240 276 8,100 -776 Descending FlightAware ADS-B
Fri 03:08:07 AM 35.8980 140.7110 294° West 240 276 7,500 -857 Descending FlightAware ADS-B
Fri 03:08:47 AM 35.9160 140.6610 294° West 245 282 7,100 -343 Descending FlightAware ADS-B
Fri 03:09:17 AM 35.9310 140.6210 295° West 247 284 7,100  Level FlightAware ADS-B
Fri 03:09:57 AM 35.9490 140.5700 294° West 247 284 7,100 -277 Level FlightAware ADS-B
Fri 03:10:22 AM 35.9610 140.5370 294° West 243 280 6,800 -857 Descending FlightAware ADS-B
Fri 03:11:07 AM 35.9790 140.4800 291° West 249 287 6,100 -640 Descending FlightAware ADS-B
Fri 03:11:37 AM 35.9810 140.4370 273° West 239 275 6,000 -706 Descending FlightAware ADS-B
Fri 03:12:32 AM 35.9850 140.3680 274° West 232 267 5,100 -600 Descending FlightAware ADS-B
Fri 03:12:57 AM 35.9860 140.3320 272° West 202 232 5,200 109 Climbing FlightAware ADS-B
Fri 03:13:27 AM 35.9860 140.3040 270° West 178 205 5,200 -218 Level FlightAware ADS-B
Fri 03:13:52 AM 35.9870 140.2760 273° West 177 204 5,000 -800 Descending FlightAware ADS-B
Fri 03:14:27 AM 35.9880 140.2440 272° West 173 199 4,400 -900 Descending FlightAware ADS-B
Fri 03:14:52 AM 35.9840 140.2200 258° West 184 212 4,100 -360 Descending FlightAware ADS-B
Fri 03:15:17 AM 35.9670 140.2070 212° Southwest 181 208 4,100  Level FlightAware ADS-B
Fri 03:15:22 AM 35.9630 140.2060 191° South 181 208 4,100  Level FlightAware ADS-B
Fri 03:15:42 AM 35.9470 140.2150 156° South 175 201 4,100 -109 Level FlightAware ADS-B
Fri 03:16:17 AM 35.9260 140.2350 142° Southeast 178 205 4,000 -686 Descending FlightAware ADS-B
Fri 03:16:52 AM 35.8990 140.2580 145° Southeast 174 200 3,300 -1,015 Descending FlightAware ADS-B
Fri 03:17:22 AM 35.8810 140.2710 150° Southeast 174 200 2,900 -873 Descending FlightAware ADS-B
Fri 03:17:47 AM 35.8660 140.2830 147° Southeast 171 197 2,500 -640 Descending FlightAware ADS-B
Fri 03:18:37 AM 35.8320 140.3080 149° Southeast 151 174 2,100 -300 Descending FlightAware ADS-B
Fri 03:19:07 AM 35.8170 140.3190 149° Southeast 151 174 2,100 -900 Level FlightAware ADS-B
Fri 03:19:37 AM 35.7970 140.3340 149° Southeast 148 170 1,200 -1,292 Descending FlightAware ADS-B
Fri 03:20:12 AM 35.7760 140.3500 148° Southeast 146 168 700 -857 Descending FlightAware ADS-B

Login

Don't have an account? Register now (free) for customized features, flight alerts, and more!